sensor_id;sensor_type;location;lat;lon;timestamp;P1;P2;P0
70554;PMS5003;58104;52.744;15.242;2023-03-23T00:01:25;13;12;
70554;PMS5003;58104;52.744;15.242;2023-03-23T00:03:50;13;11;
70554;PMS5003;58104;52.744;15.242;2023-03-23T00:06:15;12;10;
70554;PMS5003;58104;52.744;15.242;2023-03-23T00:08:40;11;10;
70554;PMS5003;58104;52.744;15.242;2023-03-23T00:11:06;13;13;
70554;PMS5003;58104;52.744;15.242;2023-03-23T00:13:31;10;9;
70554;PMS5003;58104;52.744;15.242;2023-03-23T00:15:56;10;10;
70554;PMS5003;58104;52.744;15.242;2023-03-23T00:18:22;14;11;
70554;PMS5003;58104;52.744;15.242;2023-03-23T00:20:48;11;9;
70554;PMS5003;58104;52.744;15.242;2023-03-23T00:23:13;13;12;
70554;PMS5003;58104;52.744;15.242;2023-03-23T00:25:38;11;9;
70554;PMS5003;58104;52.744;15.242;2023-03-23T00:28:04;9;9;
70554;PMS5003;58104;52.744;15.242;2023-03-23T00:30:29;9;9;
70554;PMS5003;58104;52.744;15.242;2023-03-23T00:32:54;10;10;
70554;PMS5003;58104;52.744;15.242;2023-03-23T00:35:20;11;10;
70554;PMS5003;58104;52.744;15.242;2023-03-23T00:37:45;10;8;
70554;PMS5003;58104;52.744;15.242;2023-03-23T00:40:10;13;12;
70554;PMS5003;58104;52.744;15.242;2023-03-23T00:42:36;11;11;
70554;PMS5003;58104;52.744;15.242;2023-03-23T00:45:01;9;9;
70554;PMS5003;58104;52.744;15.242;2023-03-23T00:47:26;10;10;
70554;PMS5003;58104;52.744;15.242;2023-03-23T00:49:52;11;9;
70554;PMS5003;58104;52.744;15.242;2023-03-23T00:52:17;10;10;
70554;PMS5003;58104;52.744;15.242;2023-03-23T00:54:43;10;10;
70554;PMS5003;58104;52.744;15.242;2023-03-23T00:57:08;11;11;
70554;PMS5003;58104;52.744;15.242;2023-03-23T00:59:34;10;9;
70554;PMS5003;58104;52.744;15.242;2023-03-23T01:01:59;10;10;
70554;PMS5003;58104;52.744;15.242;2023-03-23T01:04:24;9;9;
70554;PMS5003;58104;52.744;15.242;2023-03-23T01:06:50;8;8;
70554;PMS5003;58104;52.744;15.242;2023-03-23T01:09:16;10;8;
70554;PMS5003;58104;52.744;15.242;2023-03-23T01:11:41;12;10;
70554;PMS5003;58104;52.744;15.242;2023-03-23T01:14:06;10;10;
70554;PMS5003;58104;52.744;15.242;2023-03-23T01:16:31;9;9;
70554;PMS5003;58104;52.744;15.242;2023-03-23T01:18:56;13;11;
70554;PMS5003;58104;52.744;15.242;2023-03-23T01:21:22;11;11;
70554;PMS5003;58104;52.744;15.242;2023-03-23T01:23:47;8;8;
70554;PMS5003;58104;52.744;15.242;2023-03-23T01:26:13;11;10;
70554;PMS5003;58104;52.744;15.242;2023-03-23T01:28:38;8;8;
70554;PMS5003;58104;52.744;15.242;2023-03-23T01:31:04;13;8;
70554;PMS5003;58104;52.744;15.242;2023-03-23T01:33:29;7;7;
70554;PMS5003;58104;52.744;15.242;2023-03-23T01:35:54;8;8;
70554;PMS5003;58104;52.744;15.242;2023-03-23T01:38:20;9;9;
70554;PMS5003;58104;52.744;15.242;2023-03-23T01:40:45;11;10;
70554;PMS5003;58104;52.744;15.242;2023-03-23T01:43:11;11;10;
70554;PMS5003;58104;52.744;15.242;2023-03-23T01:45:36;10;10;
70554;PMS5003;58104;52.744;15.242;2023-03-23T01:48:03;9;7;
70554;PMS5003;58104;52.744;15.242;2023-03-23T01:50:27;10;10;
70554;PMS5003;58104;52.744;15.242;2023-03-23T01:52:52;9;8;
70554;PMS5003;58104;52.744;15.242;2023-03-23T01:55:17;11;9;
70554;PMS5003;58104;52.744;15.242;2023-03-23T01:57:43;8;8;
70554;PMS5003;58104;52.744;15.242;2023-03-23T02:00:08;10;10;
70554;PMS5003;58104;52.744;15.242;2023-03-23T02:02:34;7;7;
70554;PMS5003;58104;52.744;15.242;2023-03-23T02:04:59;11;10;
70554;PMS5003;58104;52.744;15.242;2023-03-23T02:07:24;10;10;
70554;PMS5003;58104;52.744;15.242;2023-03-23T02:09:50;10;8;
70554;PMS5003;58104;52.744;15.242;2023-03-23T02:12:15;11;9;
70554;PMS5003;58104;52.744;15.242;2023-03-23T02:14:41;10;8;
70554;PMS5003;58104;52.744;15.242;2023-03-23T02:17:07;7;7;
70554;PMS5003;58104;52.744;15.242;2023-03-23T02:22:05;9;7;
70554;PMS5003;58104;52.744;15.242;2023-03-23T02:26:50;11;8;
70554;PMS5003;58104;52.744;15.242;2023-03-23T02:29:17;9;9;
70554;PMS5003;58104;52.744;15.242;2023-03-23T02:31:44;9;8;
70554;PMS5003;58104;52.744;15.242;2023-03-23T02:34:05;7;7;
70554;PMS5003;58104;52.744;15.242;2023-03-23T02:36:30;11;9;
70554;PMS5003;58104;52.744;15.242;2023-03-23T02:38:56;9;8;
70554;PMS5003;58104;52.744;15.242;2023-03-23T02:41:21;7;7;
70554;PMS5003;58104;52.744;15.242;2023-03-23T02:43:46;9;9;
70554;PMS5003;58104;52.744;15.242;2023-03-23T02:46:11;10;9;
70554;PMS5003;58104;52.744;15.242;2023-03-23T02:48:36;10;8;
70554;PMS5003;58104;52.744;15.242;2023-03-23T02:51:02;10;9;
70554;PMS5003;58104;52.744;15.242;2023-03-23T02:53:27;8;8;
70554;PMS5003;58104;52.744;15.242;2023-03-23T02:55:53;8;8;
70554;PMS5003;58104;52.744;15.242;2023-03-23T02:58:18;6;6;
70554;PMS5003;58104;52.744;15.242;2023-03-23T03:00:44;9;8;
70554;PMS5003;58104;52.744;15.242;2023-03-23T03:03:10;10;8;
70554;PMS5003;58104;52.744;15.242;2023-03-23T03:05:36;8;8;
70554;PMS5003;58104;52.744;15.242;2023-03-23T03:08:01;6;6;
70554;PMS5003;58104;52.744;15.242;2023-03-23T03:10:25;8;6;
70554;PMS5003;58104;52.744;15.242;2023-03-23T03:12:52;8;8;
70554;PMS5003;58104;52.744;15.242;2023-03-23T03:15:20;10;9;
70554;PMS5003;58104;52.744;15.242;2023-03-23T03:17:47;8;8;
70554;PMS5003;58104;52.744;15.242;2023-03-23T03:20:07;7;7;
70554;PMS5003;58104;52.744;15.242;2023-03-23T03:22:32;9;9;
70554;PMS5003;58104;52.744;15.242;2023-03-23T03:24:57;7;7;
70554;PMS5003;58104;52.744;15.242;2023-03-23T03:27:22;9;8;
70554;PMS5003;58104;52.744;15.242;2023-03-23T03:29:49;8;8;
70554;PMS5003;58104;52.744;15.242;2023-03-23T03:32:19;10;8;
70554;PMS5003;58104;52.744;15.242;2023-03-23T03:34:38;9;7;
70554;PMS5003;58104;52.744;15.242;2023-03-23T03:37:04;13;11;
70554;PMS5003;58104;52.744;15.242;2023-03-23T03:39:29;7;7;
70554;PMS5003;58104;52.744;15.242;2023-03-23T03:41:54;9;8;
70554;PMS5003;58104;52.744;15.242;2023-03-23T03:44:20;9;9;
70554;PMS5003;58104;52.744;15.242;2023-03-23T03:46:45;10;8;
70554;PMS5003;58104;52.744;15.242;2023-03-23T03:49:11;9;8;
70554;PMS5003;58104;52.744;15.242;2023-03-23T03:51:36;6;6;
70554;PMS5003;58104;52.744;15.242;2023-03-23T03:54:02;8;8;
70554;PMS5003;58104;52.744;15.242;2023-03-23T03:56:27;7;7;
70554;PMS5003;58104;52.744;15.242;2023-03-23T03:58:52;10;9;
70554;PMS5003;58104;52.744;15.242;2023-03-23T04:01:18;8;8;
70554;PMS5003;58104;52.744;15.242;2023-03-23T04:03:43;7;7;
70554;PMS5003;58104;52.744;15.242;2023-03-23T04:06:09;8;7;
70554;PMS5003;58104;52.744;15.242;2023-03-23T04:08:34;8;8;
70554;PMS5003;58104;52.744;15.242;2023-03-23T04:10:59;7;7;
70554;PMS5003;58104;52.744;15.242;2023-03-23T04:13:25;10;8;
70554;PMS5003;58104;52.744;15.242;2023-03-23T04:15:50;10;8;
70554;PMS5003;58104;52.744;15.242;2023-03-23T04:18:16;7;7;
70554;PMS5003;58104;52.744;15.242;2023-03-23T04:20:41;11;8;
70554;PMS5003;58104;52.744;15.242;2023-03-23T04:23:06;10;9;
70554;PMS5003;58104;52.744;15.242;2023-03-23T04:25:32;6;6;
70554;PMS5003;58104;52.744;15.242;2023-03-23T04:27:57;10;8;
70554;PMS5003;58104;52.744;15.242;2023-03-23T04:30:23;6;6;
70554;PMS5003;58104;52.744;15.242;2023-03-23T04:32:48;6;6;
70554;PMS5003;58104;52.744;15.242;2023-03-23T04:35:13;7;7;
70554;PMS5003;58104;52.744;15.242;2023-03-23T04:37:38;7;7;
70554;PMS5003;58104;52.744;15.242;2023-03-23T04:40:04;8;8;
70554;PMS5003;58104;52.744;15.242;2023-03-23T04:42:30;8;8;
70554;PMS5003;58104;52.744;15.242;2023-03-23T04:44:55;8;8;
70554;PMS5003;58104;52.744;15.242;2023-03-23T04:47:20;6;6;
70554;PMS5003;58104;52.744;15.242;2023-03-23T04:49:45;7;7;
70554;PMS5003;58104;52.744;15.242;2023-03-23T04:52:11;7;7;
70554;PMS5003;58104;52.744;15.242;2023-03-23T04:54:36;9;7;
70554;PMS5003;58104;52.744;15.242;2023-03-23T04:57:02;9;9;
70554;PMS5003;58104;52.744;15.242;2023-03-23T04:59:27;12;12;
70554;PMS5003;58104;52.744;15.242;2023-03-23T05:01:52;8;8;
70554;PMS5003;58104;52.744;15.242;2023-03-23T05:04:17;6;6;
70554;PMS5003;58104;52.744;15.242;2023-03-23T05:06:43;8;8;
70554;PMS5003;58104;52.744;15.242;2023-03-23T05:09:08;7;6;
70554;PMS5003;58104;52.744;15.242;2023-03-23T05:11:34;9;8;
70554;PMS5003;58104;52.744;15.242;2023-03-23T05:13:59;8;8;
70554;PMS5003;58104;52.744;15.242;2023-03-23T05:16:24;8;7;
70554;PMS5003;58104;52.744;15.242;2023-03-23T05:18:50;7;7;
70554;PMS5003;58104;52.744;15.242;2023-03-23T05:21:15;9;7;
70554;PMS5003;58104;52.744;15.242;2023-03-23T05:23:40;9;8;
70554;PMS5003;58104;52.744;15.242;2023-03-23T05:26:06;6;6;
70554;PMS5003;58104;52.744;15.242;2023-03-23T05:28:31;7;7;
70554;PMS5003;58104;52.744;15.242;2023-03-23T05:30:57;7;7;
70554;PMS5003;58104;52.744;15.242;2023-03-23T05:33:22;7;7;
70554;PMS5003;58104;52.744;15.242;2023-03-23T05:35:47;9;8;
70554;PMS5003;58104;52.744;15.242;2023-03-23T05:38:13;8;8;
70554;PMS5003;58104;52.744;15.242;2023-03-23T05:40:38;10;10;
70554;PMS5003;58104;52.744;15.242;2023-03-23T05:43:03;10;6;
70554;PMS5003;58104;52.744;15.242;2023-03-23T05:45:28;5;5;
70554;PMS5003;58104;52.744;15.242;2023-03-23T05:47:54;6;6;
70554;PMS5003;58104;52.744;15.242;2023-03-23T05:50:19;6;5;
70554;PMS5003;58104;52.744;15.242;2023-03-23T05:52:45;7;7;
70554;PMS5003;58104;52.744;15.242;2023-03-23T05:55:10;7;7;
70554;PMS5003;58104;52.744;15.242;2023-03-23T05:57:36;6;6;
70554;PMS5003;58104;52.744;15.242;2023-03-23T06:00:01;8;7;
70554;PMS5003;58104;52.744;15.242;2023-03-23T06:02:26;9;7;
70554;PMS5003;58104;52.744;15.242;2023-03-23T06:04:52;6;6;
70554;PMS5003;58104;52.744;15.242;2023-03-23T06:07:17;8;8;
70554;PMS5003;58104;52.744;15.242;2023-03-23T06:09:43;5;5;
70554;PMS5003;58104;52.744;15.242;2023-03-23T06:12:08;7;7;
70554;PMS5003;58104;52.744;15.242;2023-03-23T06:14:34;6;6;
70554;PMS5003;58104;52.744;15.242;2023-03-23T06:16:59;9;7;
70554;PMS5003;58104;52.744;15.242;2023-03-23T06:19:24;10;8;
70554;PMS5003;58104;52.744;15.242;2023-03-23T06:21:50;8;6;
70554;PMS5003;58104;52.744;15.242;2023-03-23T06:24:15;7;7;
70554;PMS5003;58104;52.744;15.242;2023-03-23T06:26:41;6;6;
70554;PMS5003;58104;52.744;15.242;2023-03-23T06:29:06;8;8;
70554;PMS5003;58104;52.744;15.242;2023-03-23T06:31:31;5;5;
70554;PMS5003;58104;52.744;15.242;2023-03-23T06:33:57;7;7;
70554;PMS5003;58104;52.744;15.242;2023-03-23T06:36:22;7;7;
70554;PMS5003;58104;52.744;15.242;2023-03-23T06:38:48;11;9;
70554;PMS5003;58104;52.744;15.242;2023-03-23T06:41:13;5;5;
70554;PMS5003;58104;52.744;15.242;2023-03-23T06:43:38;7;7;
70554;PMS5003;58104;52.744;15.242;2023-03-23T06:46:04;7;6;
70554;PMS5003;58104;52.744;15.242;2023-03-23T06:48:29;6;6;
70554;PMS5003;58104;52.744;15.242;2023-03-23T06:50:55;7;7;
70554;PMS5003;58104;52.744;15.242;2023-03-23T06:53:20;7;7;
70554;PMS5003;58104;52.744;15.242;2023-03-23T06:55:46;8;6;
70554;PMS5003;58104;52.744;15.242;2023-03-23T06:58:11;10;10;
70554;PMS5003;58104;52.744;15.242;2023-03-23T07:00:36;12;10;
70554;PMS5003;58104;52.744;15.242;2023-03-23T07:03:02;10;7;
70554;PMS5003;58104;52.744;15.242;2023-03-23T07:05:27;9;9;
70554;PMS5003;58104;52.744;15.242;2023-03-23T07:07:52;6;6;
70554;PMS5003;58104;52.744;15.242;2023-03-23T07:10:17;8;6;
70554;PMS5003;58104;52.744;15.242;2023-03-23T07:12:43;9;9;
70554;PMS5003;58104;52.744;15.242;2023-03-23T07:15:09;7;7;
70554;PMS5003;58104;52.744;15.242;2023-03-23T07:17:34;9;7;
70554;PMS5003;58104;52.744;15.242;2023-03-23T07:19:59;9;9;
70554;PMS5003;58104;52.744;15.242;2023-03-23T07:22:24;8;8;
70554;PMS5003;58104;52.744;15.242;2023-03-23T07:24:50;7;7;
70554;PMS5003;58104;52.744;15.242;2023-03-23T07:27:15;8;8;
70554;PMS5003;58104;52.744;15.242;2023-03-23T07:29:40;9;9;
70554;PMS5003;58104;52.744;15.242;2023-03-23T07:32:06;11;9;
70554;PMS5003;58104;52.744;15.242;2023-03-23T07:34:31;8;7;
70554;PMS5003;58104;52.744;15.242;2023-03-23T07:36:57;7;6;
70554;PMS5003;58104;52.744;15.242;2023-03-23T07:39:22;6;6;
70554;PMS5003;58104;52.744;15.242;2023-03-23T07:41:47;8;4;
70554;PMS5003;58104;52.744;15.242;2023-03-23T07:44:13;10;6;
70554;PMS5003;58104;52.744;15.242;2023-03-23T07:46:38;8;6;
70554;PMS5003;58104;52.744;15.242;2023-03-23T07:49:04;10;7;
70554;PMS5003;58104;52.744;15.242;2023-03-23T07:51:29;5;5;
70554;PMS5003;58104;52.744;15.242;2023-03-23T07:53:54;6;6;
70554;PMS5003;58104;52.744;15.242;2023-03-23T07:56:20;6;6;
70554;PMS5003;58104;52.744;15.242;2023-03-23T07:58:45;6;6;
70554;PMS5003;58104;52.744;15.242;2023-03-23T08:01:10;9;7;
70554;PMS5003;58104;52.744;15.242;2023-03-23T08:03:35;11;10;
70554;PMS5003;58104;52.744;15.242;2023-03-23T08:06:01;10;7;
70554;PMS5003;58104;52.744;15.242;2023-03-23T08:08:26;8;8;
70554;PMS5003;58104;52.744;15.242;2023-03-23T08:10:52;8;8;
70554;PMS5003;58104;52.744;15.242;2023-03-23T08:13:17;6;6;
70554;PMS5003;58104;52.744;15.242;2023-03-23T08:15:43;7;7;
70554;PMS5003;58104;52.744;15.242;2023-03-23T08:18:08;13;11;
70554;PMS5003;58104;52.744;15.242;2023-03-23T08:20:33;6;6;
70554;PMS5003;58104;52.744;15.242;2023-03-23T08:22:58;7;7;
70554;PMS5003;58104;52.744;15.242;2023-03-23T08:25:24;6;6;
70554;PMS5003;58104;52.744;15.242;2023-03-23T08:27:49;7;6;
70554;PMS5003;58104;52.744;15.242;2023-03-23T08:30:15;13;9;
70554;PMS5003;58104;52.744;15.242;2023-03-23T08:32:40;5;5;
70554;PMS5003;58104;52.744;15.242;2023-03-23T08:35:06;5;5;
70554;PMS5003;58104;52.744;15.242;2023-03-23T08:37:31;7;7;
70554;PMS5003;58104;52.744;15.242;2023-03-23T08:39:56;8;6;
70554;PMS5003;58104;52.744;15.242;2023-03-23T08:42:22;7;6;
70554;PMS5003;58104;52.744;15.242;2023-03-23T08:44:47;6;5;
70554;PMS5003;58104;52.744;15.242;2023-03-23T08:47:12;5;5;
70554;PMS5003;58104;52.744;15.242;2023-03-23T08:49:37;7;6;
70554;PMS5003;58104;52.744;15.242;2023-03-23T08:52:03;6;5;
70554;PMS5003;58104;52.744;15.242;2023-03-23T08:54:28;7;7;
70554;PMS5003;58104;52.744;15.242;2023-03-23T08:56:53;5;5;
70554;PMS5003;58104;52.744;15.242;2023-03-23T08:59:19;6;5;
70554;PMS5003;58104;52.744;15.242;2023-03-23T09:01:44;11;8;
70554;PMS5003;58104;52.744;15.242;2023-03-23T09:04:10;6;5;
70554;PMS5003;58104;52.744;15.242;2023-03-23T09:06:35;5;5;
70554;PMS5003;58104;52.744;15.242;2023-03-23T09:09:01;6;6;
70554;PMS5003;58104;52.744;15.242;2023-03-23T09:11:26;6;6;
70554;PMS5003;58104;52.744;15.242;2023-03-23T09:13:51;7;7;
70554;PMS5003;58104;52.744;15.242;2023-03-23T09:16:17;6;6;
70554;PMS5003;58104;52.744;15.242;2023-03-23T09:18:42;6;6;
70554;PMS5003;58104;52.744;15.242;2023-03-23T09:21:08;8;5;
70554;PMS5003;58104;52.744;15.242;2023-03-23T09:23:33;7;6;
70554;PMS5003;58104;52.744;15.242;2023-03-23T09:25:59;6;5;
70554;PMS5003;58104;52.744;15.242;2023-03-23T09:28:24;4;4;
70554;PMS5003;58104;52.744;15.242;2023-03-23T09:30:49;7;6;
70554;PMS5003;58104;52.744;15.242;2023-03-23T09:33:15;6;6;
70554;PMS5003;58104;52.744;15.242;2023-03-23T09:35:40;6;5;
70554;PMS5003;58104;52.744;15.242;2023-03-23T09:38:06;5;5;
70554;PMS5003;58104;52.744;15.242;2023-03-23T09:40:33;6;5;
70554;PMS5003;58104;52.744;15.242;2023-03-23T09:43:03;6;6;
70554;PMS5003;58104;52.744;15.242;2023-03-23T09:45:23;7;7;
70554;PMS5003;58104;52.744;15.242;2023-03-23T09:48:00;5;5;
70554;PMS5003;58104;52.744;15.242;2023-03-23T09:50:14;6;5;
70554;PMS5003;58104;52.744;15.242;2023-03-23T09:52:39;5;5;
70554;PMS5003;58104;52.744;15.242;2023-03-23T09:55:04;8;6;
70554;PMS5003;58104;52.744;15.242;2023-03-23T09:57:31;6;6;
70554;PMS5003;58104;52.744;15.242;2023-03-23T09:59:56;3;3;
70554;PMS5003;58104;52.744;15.242;2023-03-23T10:02:21;7;5;
70554;PMS5003;58104;52.744;15.242;2023-03-23T10:04:45;5;5;
70554;PMS5003;58104;52.744;15.242;2023-03-23T10:07:11;9;5;
70554;PMS5003;58104;52.744;15.242;2023-03-23T10:09:35;4;4;
70554;PMS5003;58104;52.744;15.242;2023-03-23T10:12:03;5;5;
70554;PMS5003;58104;52.744;15.242;2023-03-23T10:14:33;4;4;
70554;PMS5003;58104;52.744;15.242;2023-03-23T10:16:55;5;5;
70554;PMS5003;58104;52.744;15.242;2023-03-23T10:19:18;5;5;
70554;PMS5003;58104;52.744;15.242;2023-03-23T10:21:44;3;3;
70554;PMS5003;58104;52.744;15.242;2023-03-23T10:24:08;6;5;
70554;PMS5003;58104;52.744;15.242;2023-03-23T10:26:35;5;5;
70554;PMS5003;58104;52.744;15.242;2023-03-23T10:28:59;4;4;
70554;PMS5003;58104;52.744;15.242;2023-03-23T10:31:24;5;5;
70554;PMS5003;58104;52.744;15.242;2023-03-23T10:33:49;6;6;
70554;PMS5003;58104;52.744;15.242;2023-03-23T10:36:15;6;5;
70554;PMS5003;58104;52.744;15.242;2023-03-23T10:38:42;7;6;
70554;PMS5003;58104;52.744;15.242;2023-03-23T10:41:06;4;4;
70554;PMS5003;58104;52.744;15.242;2023-03-23T10:43:30;7;5;
70554;PMS5003;58104;52.744;15.242;2023-03-23T10:45:56;5;5;
70554;PMS5003;58104;52.744;15.242;2023-03-23T10:48:23;7;6;
70554;PMS5003;58104;52.744;15.242;2023-03-23T10:50:49;5;5;
70554;PMS5003;58104;52.744;15.242;2023-03-23T10:53:14;4;4;
70554;PMS5003;58104;52.744;15.242;2023-03-23T10:55:38;5;5;
70554;PMS5003;58104;52.744;15.242;2023-03-23T10:58:03;8;5;
70554;PMS5003;58104;52.744;15.242;2023-03-23T11:00:29;7;5;
70554;PMS5003;58104;52.744;15.242;2023-03-23T11:02:57;4;4;
70554;PMS5003;58104;52.744;15.242;2023-03-23T11:05:20;4;4;
70554;PMS5003;58104;52.744;15.242;2023-03-23T11:07:48;7;4;
70554;PMS5003;58104;52.744;15.242;2023-03-23T11:12:35;4;4;
70554;PMS5003;58104;52.744;15.242;2023-03-23T11:15:09;10;10;
70554;PMS5003;58104;52.744;15.242;2023-03-23T11:17:26;6;6;
70554;PMS5003;58104;52.744;15.242;2023-03-23T11:19:51;6;5;
70554;PMS5003;58104;52.744;15.242;2023-03-23T11:22:18;6;6;
70554;PMS5003;58104;52.744;15.242;2023-03-23T11:24:42;4;4;
70554;PMS5003;58104;52.744;15.242;2023-03-23T11:27:08;3;3;
70554;PMS5003;58104;52.744;15.242;2023-03-23T11:29:33;5;5;
70554;PMS5003;58104;52.744;15.242;2023-03-23T11:32:02;5;5;
70554;PMS5003;58104;52.744;15.242;2023-03-23T11:34:24;6;5;
70554;PMS5003;58104;52.744;15.242;2023-03-23T11:36:49;3;3;
70554;PMS5003;58104;52.744;15.242;2023-03-23T11:39:19;4;4;
70554;PMS5003;58104;52.744;15.242;2023-03-23T11:41:39;3;3;
70554;PMS5003;58104;52.744;15.242;2023-03-23T11:44:10;5;5;
70554;PMS5003;58104;52.744;15.242;2023-03-23T11:46:32;4;4;
70554;PMS5003;58104;52.744;15.242;2023-03-23T11:48:57;2;2;
70554;PMS5003;58104;52.744;15.242;2023-03-23T11:51:23;5;4;
70554;PMS5003;58104;52.744;15.242;2023-03-23T11:53:47;5;5;
70554;PMS5003;58104;52.744;15.242;2023-03-23T11:56:14;3;3;
70554;PMS5003;58104;52.744;15.242;2023-03-23T11:58:37;3;3;
70554;PMS5003;58104;52.744;15.242;2023-03-23T12:01:04;3;3;
70554;PMS5003;58104;52.744;15.242;2023-03-23T12:03:33;4;4;
70554;PMS5003;58104;52.744;15.242;2023-03-23T12:05:54;2;2;
70554;PMS5003;58104;52.744;15.242;2023-03-23T12:08:22;4;4;
70554;PMS5003;58104;52.744;15.242;2023-03-23T12:10:45;3;3;
70554;PMS5003;58104;52.744;15.242;2023-03-23T12:13:14;5;4;
70554;PMS5003;58104;52.744;15.242;2023-03-23T12:15:37;3;3;
70554;PMS5003;58104;52.744;15.242;2023-03-23T12:18:01;6;4;
70554;PMS5003;58104;52.744;15.242;2023-03-23T12:20:29;3;3;
70554;PMS5003;58104;52.744;15.242;2023-03-23T12:22:54;4;4;
70554;PMS5003;58104;52.744;15.242;2023-03-23T12:25:19;4;4;
70554;PMS5003;58104;52.744;15.242;2023-03-23T12:27:42;3;3;
70554;PMS5003;58104;52.744;15.242;2023-03-23T12:30:12;3;3;
70554;PMS5003;58104;52.744;15.242;2023-03-23T12:32:37;3;3;
70554;PMS5003;58104;52.744;15.242;2023-03-23T12:35:00;3;3;
70554;PMS5003;58104;52.744;15.242;2023-03-23T12:37:30;2;2;
70554;PMS5003;58104;52.744;15.242;2023-03-23T12:39:53;2;2;
70554;PMS5003;58104;52.744;15.242;2023-03-23T12:42:16;6;3;
70554;PMS5003;58104;52.744;15.242;2023-03-23T12:44:41;4;4;
70554;PMS5003;58104;52.744;15.242;2023-03-23T12:47:08;4;3;
70554;PMS5003;58104;52.744;15.242;2023-03-23T12:49:31;2;2;
70554;PMS5003;58104;52.744;15.242;2023-03-23T12:51:57;3;2;
70554;PMS5003;58104;52.744;15.242;2023-03-23T12:54:23;2;2;
70554;PMS5003;58104;52.744;15.242;2023-03-23T12:56:48;2;2;
70554;PMS5003;58104;52.744;15.242;2023-03-23T12:59:13;4;2;
70554;PMS5003;58104;52.744;15.242;2023-03-23T13:01:38;1;1;
70554;PMS5003;58104;52.744;15.242;2023-03-23T13:04:04;2;2;
70554;PMS5003;58104;52.744;15.242;2023-03-23T13:06:29;2;2;
70554;PMS5003;58104;52.744;15.242;2023-03-23T13:08:54;3;3;
70554;PMS5003;58104;52.744;15.242;2023-03-23T13:11:20;3;3;
70554;PMS5003;58104;52.744;15.242;2023-03-23T13:13:45;3;3;
70554;PMS5003;58104;52.744;15.242;2023-03-23T13:16:11;4;4;
70554;PMS5003;58104;52.744;15.242;2023-03-23T13:18:38;3;3;
70554;PMS5003;58104;52.744;15.242;2023-03-23T13:21:04;5;4;
70554;PMS5003;58104;52.744;15.242;2023-03-23T13:23:27;2;2;
70554;PMS5003;58104;52.744;15.242;2023-03-23T13:25:52;4;4;
70554;PMS5003;58104;52.744;15.242;2023-03-23T13:28:17;3;3;
70554;PMS5003;58104;52.744;15.242;2023-03-23T13:30:52;3;3;
70554;PMS5003;58104;52.744;15.242;2023-03-23T13:33:11;3;3;
70554;PMS5003;58104;52.744;15.242;2023-03-23T13:35:34;4;4;
70554;PMS5003;58104;52.744;15.242;2023-03-23T13:37:58;4;4;
70554;PMS5003;58104;52.744;15.242;2023-03-23T13:40:24;4;4;
70554;PMS5003;58104;52.744;15.242;2023-03-23T13:42:50;2;2;
70554;PMS5003;58104;52.744;15.242;2023-03-23T13:45:19;8;5;
70554;PMS5003;58104;52.744;15.242;2023-03-23T13:47:41;4;4;
70554;PMS5003;58104;52.744;15.242;2023-03-23T13:50:10;4;4;
70554;PMS5003;58104;52.744;15.242;2023-03-23T13:57:26;7;5;
70554;PMS5003;58104;52.744;15.242;2023-03-23T13:59:47;5;5;
70554;PMS5003;58104;52.744;15.242;2023-03-23T14:04:37;5;5;
70554;PMS5003;58104;52.744;15.242;2023-03-23T14:09:31;6;4;
70554;PMS5003;58104;52.744;15.242;2023-03-23T14:11:55;7;7;
70554;PMS5003;58104;52.744;15.242;2023-03-23T14:14:20;8;5;
70554;PMS5003;58104;52.744;15.242;2023-03-23T14:16:44;6;6;
70554;PMS5003;58104;52.744;15.242;2023-03-23T14:19:14;5;5;
70554;PMS5003;58104;52.744;15.242;2023-03-23T14:21:36;8;6;
70554;PMS5003;58104;52.744;15.242;2023-03-23T14:24:02;6;5;
70554;PMS5003;58104;52.744;15.242;2023-03-23T14:26:26;10;6;
70554;PMS5003;58104;52.744;15.242;2023-03-23T14:28:52;6;5;
70554;PMS5003;58104;52.744;15.242;2023-03-23T14:31:18;7;5;
70554;PMS5003;58104;52.744;15.242;2023-03-23T14:33:42;4;4;
70554;PMS5003;58104;52.744;15.242;2023-03-23T14:36:08;4;4;
70554;PMS5003;58104;52.744;15.242;2023-03-23T14:38:33;7;5;
70554;PMS5003;58104;52.744;15.242;2023-03-23T14:41:00;5;5;
70554;PMS5003;58104;52.744;15.242;2023-03-23T14:43:24;4;4;
70554;PMS5003;58104;52.744;15.242;2023-03-23T14:45:51;6;4;
70554;PMS5003;58104;52.744;15.242;2023-03-23T14:48:15;5;5;
70554;PMS5003;58104;52.744;15.242;2023-03-23T14:50:41;6;5;
70554;PMS5003;58104;52.744;15.242;2023-03-23T14:53:10;3;3;
70554;PMS5003;58104;52.744;15.242;2023-03-23T14:55:31;8;5;
70554;PMS5003;58104;52.744;15.242;2023-03-23T15:00:23;7;5;
70554;PMS5003;58104;52.744;15.242;2023-03-23T15:02:47;6;4;
70554;PMS5003;58104;52.744;15.242;2023-03-23T15:05:13;5;5;
70554;PMS5003;58104;52.744;15.242;2023-03-23T15:07:38;5;5;
70554;PMS5003;58104;52.744;15.242;2023-03-23T15:10:05;7;7;
70554;PMS5003;58104;52.744;15.242;2023-03-23T15:12:29;7;5;
70554;PMS5003;58104;52.744;15.242;2023-03-23T15:14:55;8;6;
70554;PMS5003;58104;52.744;15.242;2023-03-23T15:17:20;6;4;
70554;PMS5003;58104;52.744;15.242;2023-03-23T15:19:45;4;4;
70554;PMS5003;58104;52.744;15.242;2023-03-23T15:22:13;5;5;
70554;PMS5003;58104;52.744;15.242;2023-03-23T15:24:37;6;5;
70554;PMS5003;58104;52.744;15.242;2023-03-23T15:27:03;5;5;
70554;PMS5003;58104;52.744;15.242;2023-03-23T15:29:27;8;5;
70554;PMS5003;58104;52.744;15.242;2023-03-23T15:31:52;5;4;
70554;PMS5003;58104;52.744;15.242;2023-03-23T15:34:20;4;4;
70554;PMS5003;58104;52.744;15.242;2023-03-23T15:36:43;3;3;
70554;PMS5003;58104;52.744;15.242;2023-03-23T15:39:08;8;5;
70554;PMS5003;58104;52.744;15.242;2023-03-23T15:41:34;7;5;
70554;PMS5003;58104;52.744;15.242;2023-03-23T15:46:25;3;3;
70554;PMS5003;58104;52.744;15.242;2023-03-23T15:48:50;5;5;
70554;PMS5003;58104;52.744;15.242;2023-03-23T15:51:16;6;4;
70554;PMS5003;58104;52.744;15.242;2023-03-23T15:53:41;7;5;
70554;PMS5003;58104;52.744;15.242;2023-03-23T15:56:07;8;6;
70554;PMS5003;58104;52.744;15.242;2023-03-23T15:58:32;6;5;
70554;PMS5003;58104;52.744;15.242;2023-03-23T16:00:57;10;9;
70554;PMS5003;58104;52.744;15.242;2023-03-23T16:03:23;8;8;
70554;PMS5003;58104;52.744;15.242;2023-03-23T16:05:48;8;8;
70554;PMS5003;58104;52.744;15.242;2023-03-23T16:08:13;10;9;
70554;PMS5003;58104;52.744;15.242;2023-03-23T16:10:38;8;7;
70554;PMS5003;58104;52.744;15.242;2023-03-23T16:13:04;9;8;
70554;PMS5003;58104;52.744;15.242;2023-03-23T16:15:29;9;6;
70554;PMS5003;58104;52.744;15.242;2023-03-23T16:17:55;8;6;
70554;PMS5003;58104;52.744;15.242;2023-03-23T16:20:21;7;7;
70554;PMS5003;58104;52.744;15.242;2023-03-23T16:22:46;7;7;
70554;PMS5003;58104;52.744;15.242;2023-03-23T16:25:11;5;5;
70554;PMS5003;58104;52.744;15.242;2023-03-23T16:27:36;9;7;
70554;PMS5003;58104;52.744;15.242;2023-03-23T16:32:27;7;6;
70554;PMS5003;58104;52.744;15.242;2023-03-23T16:34:52;8;7;
70554;PMS5003;58104;52.744;15.242;2023-03-23T16:37:18;5;5;
70554;PMS5003;58104;52.744;15.242;2023-03-23T16:39:43;12;8;